createdAt,value
2018-07-09T00:02:09.459Z,53.68
2018-07-09T00:05:34.383Z,53.22
2018-07-09T00:08:59.157Z,54.81
2018-07-09T00:12:23.814Z,54.17
2018-07-09T00:15:48.511Z,54.93
2018-07-09T00:19:13.231Z,54.32
2018-07-09T00:22:37.873Z,54.20
2018-07-09T00:26:02.536Z,54.69
2018-07-09T00:29:27.342Z,53.78
2018-07-09T00:32:52.041Z,54.48
2018-07-09T00:36:16.699Z,55.72
2018-07-09T00:39:41.362Z,56.95
2018-07-09T00:43:06.179Z,56.88
2018-07-09T00:46:31.275Z,56.27
2018-07-09T00:49:55.554Z,56.60
2018-07-09T00:53:20.250Z,57.68
2018-07-09T00:56:44.893Z,58.01
2018-07-09T01:00:09.578Z,58.70
2018-07-09T01:03:34.230Z,58.09
2018-07-09T01:06:59.012Z,58.62
2018-07-09T01:10:23.339Z,57.70
2018-07-09T01:13:48.006Z,58.81
2018-07-09T01:17:12.859Z,59.35
2018-07-09T01:20:37.890Z,58.55
2018-07-09T01:24:02.540Z,57.65
2018-07-09T01:27:27.512Z,58.46
2018-07-09T01:30:52.397Z,57.52
2018-07-09T01:34:17.142Z,59.23
2018-07-09T01:37:42.404Z,58.92
2018-07-09T01:41:07.093Z,59.80
2018-07-09T01:44:31.758Z,60.32
2018-07-09T01:47:56.435Z,60.50
2018-07-09T01:51:21.114Z,60.97
2018-07-09T01:54:45.761Z,60.74
2018-07-09T01:58:10.417Z,59.79
2018-07-09T02:01:35.054Z,60.02
2018-07-09T02:04:59.700Z,59.10
2018-07-09T02:08:24.422Z,61.68
2018-07-09T02:11:49.112Z,61.19
2018-07-09T02:15:13.847Z,60.22
2018-07-09T02:18:38.529Z,59.59
2018-07-09T02:22:03.318Z,58.70
2018-07-09T02:25:27.986Z,57.86
2018-07-09T02:28:52.658Z,57.25
2018-07-09T02:32:17.335Z,56.90
2018-07-09T02:35:42.032Z,57.26
2018-07-09T02:39:07.335Z,56.30
2018-07-09T02:42:31.981Z,56.45
2018-07-09T02:45:56.654Z,55.74
2018-07-09T02:49:21.243Z,55.79
2018-07-09T02:52:45.899Z,55.28
2018-07-09T02:56:10.552Z,54.27
2018-07-09T02:59:35.314Z,54.04
2018-07-09T03:02:59.958Z,55.02
2018-07-09T03:06:24.634Z,54.74
2018-07-09T03:09:49.323Z,54.37
2018-07-09T03:13:14.018Z,53.52
2018-07-09T03:16:38.717Z,53.63
2018-07-09T03:20:03.382Z,54.18
2018-07-09T03:23:28.199Z,53.83
2018-07-09T03:26:52.890Z,53.75
2018-07-09T03:30:18.571Z,54.44
2018-07-09T03:33:43.213Z,54.10
2018-07-09T03:37:08.324Z,54.58
2018-07-09T03:40:33.064Z,54.10
2018-07-09T03:43:57.766Z,53.85
2018-07-09T03:47:22.468Z,55.30
2018-07-09T03:50:47.133Z,54.51
2018-07-09T03:54:11.771Z,55.40
2018-07-09T03:57:36.427Z,54.21
2018-07-09T04:01:01.069Z,56.10
2018-07-09T04:04:25.912Z,55.11
2018-07-09T04:07:50.555Z,55.00
2018-07-09T04:11:15.296Z,56.05
2018-07-09T04:14:40.001Z,56.19
2018-07-09T04:18:04.647Z,55.88
2018-07-09T04:21:29.294Z,54.48
2018-07-09T04:24:53.916Z,54.26
2018-07-09T04:28:18.644Z,54.25
2018-07-09T04:31:43.242Z,53.41
2018-07-09T04:35:07.561Z,53.73
2018-07-09T04:38:32.192Z,53.57
2018-07-09T04:41:56.474Z,50.36
2018-07-09T04:45:21.167Z,53.56
2018-07-09T04:48:46.417Z,52.80
2018-07-09T04:52:11.054Z,50.11
2018-07-09T04:55:35.778Z,49.84
2018-07-09T05:00:29.416Z,49.15
2018-07-09T05:03:54.140Z,48.86
2018-07-09T05:07:18.833Z,49.65
2018-07-09T05:10:44.249Z,48.04
2018-07-09T05:14:08.912Z,47.61
2018-07-09T05:17:33.633Z,46.44
2018-07-09T05:20:58.337Z,47.59
2018-07-09T05:24:23.035Z,47.06
2018-07-09T05:27:47.829Z,46.10
2018-07-09T05:31:12.232Z,46.55
2018-07-09T05:34:36.830Z,47.21
2018-07-09T05:38:01.519Z,47.84
2018-07-09T05:41:26.255Z,46.85
2018-07-09T05:44:50.925Z,45.88
2018-07-09T05:48:15.252Z,45.52
2018-07-09T05:51:39.891Z,46.84
2018-07-09T05:55:04.589Z,47.58
2018-07-09T05:58:29.231Z,47.56
2018-07-09T06:01:53.906Z,47.29
2018-07-09T06:05:18.603Z,47.67
2018-07-09T06:08:43.292Z,44.96
2018-07-09T06:12:08.089Z,45.58
2018-07-09T06:15:32.705Z,45.72
2018-07-09T06:18:57.329Z,44.74
2018-07-09T06:22:21.616Z,45.23
2018-07-09T06:25:46.293Z,45.13
2018-07-09T06:29:10.887Z,45.64
2018-07-09T06:32:35.490Z,45.64
2018-07-09T06:36:00.130Z,45.43
2018-07-09T06:39:24.746Z,45.68
2018-07-09T06:42:49.376Z,45.57
2018-07-09T06:46:14.006Z,45.65
2018-07-09T06:49:38.691Z,45.53
2018-07-09T06:53:03.327Z,44.71
2018-07-09T06:56:28.129Z,45.81
2018-07-09T06:59:52.792Z,45.46
2018-07-09T07:03:17.719Z,44.70
2018-07-09T07:06:42.560Z,44.93
2018-07-09T07:10:07.523Z,45.09
2018-07-09T07:13:32.278Z,45.43
2018-07-09T07:18:26.011Z,46.47
2018-07-09T07:21:50.342Z,45.56
2018-07-09T07:25:15.433Z,45.71
2018-07-09T07:28:40.111Z,45.79
2018-07-09T07:32:04.875Z,45.39
2018-07-09T07:35:29.677Z,45.98
2018-07-09T07:38:54.328Z,45.80
2018-07-09T07:42:19.083Z,46.48
2018-07-09T07:45:43.863Z,45.65
2018-07-09T07:49:09.618Z,45.54
2018-07-09T07:52:34.241Z,44.61
2018-07-09T07:55:59.110Z,45.12
2018-07-09T07:59:23.897Z,45.00
2018-07-09T08:02:48.737Z,44.63
2018-07-09T08:06:13.404Z,43.64
2018-07-09T08:09:38.160Z,44.60
2018-07-09T08:13:27.174Z,44.20
2018-07-09T08:16:27.580Z,44.37
2018-07-09T08:19:52.275Z,43.50
2018-07-09T08:23:19.925Z,43.31
2018-07-09T08:26:44.570Z,43.42
2018-07-09T08:30:09.365Z,43.07
2018-07-09T08:33:34.067Z,41.69
2018-07-09T08:36:58.799Z,41.91
2018-07-09T08:40:23.493Z,40.57
2018-07-09T08:43:48.153Z,41.60
2018-07-09T08:47:13.600Z,42.12
2018-07-09T08:50:38.356Z,41.33
2018-07-09T08:54:03.038Z,41.58
2018-07-09T08:57:27.700Z,41.80
2018-07-09T09:00:52.446Z,40.79
2018-07-09T09:04:17.140Z,40.48
2018-07-09T09:07:42.808Z,40.56
2018-07-09T09:11:08.620Z,39.89
2018-07-09T09:14:33.524Z,40.18
2018-07-09T09:17:58.343Z,39.36
2018-07-09T09:21:23.056Z,39.09
2018-07-09T09:24:47.783Z,39.80
2018-07-09T09:28:12.444Z,39.31
2018-07-09T09:31:37.222Z,39.22
2018-07-09T09:35:01.887Z,39.98
2018-07-09T09:38:27.204Z,38.63
2018-07-09T09:41:51.954Z,39.20
2018-07-09T09:45:16.674Z,38.79
2018-07-09T09:48:41.347Z,37.90
2018-07-09T09:52:06.742Z,38.08
2018-07-09T09:55:31.029Z,36.73
2018-07-09T09:58:55.689Z,36.38
2018-07-09T10:02:20.352Z,37.41
2018-07-09T10:05:44.680Z,38.19
2018-07-09T10:09:17.581Z,37.82
2018-07-09T10:12:42.208Z,38.81
2018-07-09T10:16:07.188Z,37.62
2018-07-09T10:19:31.852Z,35.29
2018-07-09T10:22:59.652Z,36.09
2018-07-09T10:26:24.273Z,36.26
2018-07-09T10:29:48.944Z,36.43
2018-07-09T10:33:13.601Z,34.20
2018-07-09T10:36:38.353Z,34.74
2018-07-09T10:40:02.798Z,35.35
2018-07-09T10:43:27.606Z,34.38
2018-07-09T10:46:51.963Z,33.40
2018-07-09T10:50:16.675Z,34.01
2018-07-09T10:53:41.003Z,33.63
2018-07-09T10:57:05.813Z,33.39
2018-07-09T11:00:31.864Z,33.21
2018-07-09T11:03:56.166Z,32.81
2018-07-09T11:07:20.837Z,32.12
2018-07-09T11:10:45.356Z,32.73
2018-07-09T11:14:10.084Z,32.47
2018-07-09T11:17:34.690Z,32.11
2018-07-09T11:20:59.360Z,31.97
2018-07-09T11:24:23.972Z,32.46
2018-07-09T11:27:48.697Z,32.00
2018-07-09T11:31:13.465Z,31.45
2018-07-09T11:34:38.073Z,31.69
2018-07-09T11:38:02.767Z,31.51
2018-07-09T11:41:27.546Z,31.11
2018-07-09T11:44:52.291Z,30.78
2018-07-09T11:48:16.812Z,31.49
2018-07-09T11:51:41.431Z,30.59
2018-07-09T11:55:06.128Z,30.48
2018-07-09T11:58:30.771Z,29.36
2018-07-09T12:01:55.039Z,29.85
2018-07-09T12:05:19.616Z,29.12
2018-07-09T12:08:44.185Z,30.61
2018-07-09T12:12:08.836Z,30.85
2018-07-09T12:15:33.152Z,29.22
2018-07-09T12:18:57.410Z,29.72
2018-07-09T12:22:22.008Z,29.32
2018-07-09T12:25:46.659Z,28.61
2018-07-09T12:29:11.351Z,27.40
2018-07-09T12:32:35.872Z,26.81
2018-07-09T12:36:00.496Z,26.32
2018-07-09T12:40:54.228Z,27.17
2018-07-09T12:44:18.832Z,24.99
2018-07-09T12:47:43.506Z,26.00
2018-07-09T12:51:08.186Z,25.11
2018-07-09T12:54:32.517Z,25.22
2018-07-09T12:57:57.163Z,24.60
2018-07-09T13:01:22.485Z,25.66
2018-07-09T13:04:46.791Z,25.31
2018-07-09T13:08:11.412Z,25.75
2018-07-09T13:11:36.053Z,25.94
2018-07-09T13:15:01.034Z,26.29
2018-07-09T13:18:26.750Z,25.78
2018-07-09T13:21:51.427Z,25.69
2018-07-09T13:25:16.137Z,25.40
2018-07-09T13:28:41.993Z,24.42
2018-07-09T13:32:06.758Z,24.16
2018-07-09T13:35:31.505Z,22.92
2018-07-09T13:38:56.312Z,22.13
2018-07-09T13:42:21.073Z,23.07
2018-07-09T13:45:45.850Z,22.24
2018-07-09T13:49:10.629Z,22.32
2018-07-09T13:52:35.536Z,21.15
2018-07-09T13:56:01.208Z,22.23
2018-07-09T13:59:26.083Z,21.58
2018-07-09T14:02:50.737Z,22.02
2018-07-09T14:06:15.567Z,20.98
2018-07-09T14:09:39.901Z,19.80
2018-07-09T14:13:04.605Z,19.59
2018-07-09T14:16:29.298Z,20.74
2018-07-09T14:20:58.455Z,21.39
2018-07-09T14:24:23.126Z,22.20
2018-07-09T14:27:47.911Z,22.52
2018-07-09T14:31:12.300Z,21.97
2018-07-09T14:34:37.173Z,22.52
2018-07-09T14:38:01.952Z,21.97
2018-07-09T14:41:26.682Z,23.29
2018-07-09T14:44:52.709Z,24.08
2018-07-09T14:48:17.469Z,23.12
2018-07-09T14:51:43.178Z,24.55
2018-07-09T14:55:07.923Z,24.21
2018-07-09T14:58:32.616Z,23.01
2018-07-09T15:01:57.298Z,22.76
2018-07-09T15:05:21.989Z,23.60
2018-07-09T15:08:46.666Z,22.95
2018-07-09T15:12:11.343Z,22.38
2018-07-09T15:15:36.200Z,21.95
2018-07-09T15:19:00.850Z,22.14
2018-07-09T15:22:25.575Z,20.98
2018-07-09T15:25:50.316Z,21.77
2018-07-09T15:29:14.709Z,21.58
2018-07-09T15:32:39.296Z,22.07
2018-07-09T15:36:03.697Z,21.36
2018-07-09T15:39:28.337Z,22.17
2018-07-09T15:42:52.765Z,23.50
2018-07-09T15:46:17.440Z,22.15
2018-07-09T15:49:42.280Z,22.63
2018-07-09T15:53:06.912Z,21.16
2018-07-09T15:56:31.582Z,22.64
2018-07-09T15:59:56.288Z,21.31
2018-07-09T16:03:21.001Z,22.19
2018-07-09T16:06:45.773Z,22.01
2018-07-09T16:10:10.415Z,21.92
2018-07-09T16:13:35.119Z,21.17
2018-07-09T16:16:59.844Z,21.66
2018-07-09T16:20:24.620Z,22.20
2018-07-09T16:23:49.281Z,23.12
2018-07-09T16:27:16.767Z,22.28
2018-07-09T16:30:44.076Z,23.58
2018-07-09T16:34:09.216Z,22.37
2018-07-09T16:37:33.967Z,21.85
2018-07-09T16:40:59.055Z,23.03
2018-07-09T16:44:23.821Z,21.73
2018-07-09T16:47:48.645Z,21.66
2018-07-09T16:51:13.354Z,22.22
2018-07-09T16:54:38.194Z,21.88
2018-07-09T16:58:03.118Z,22.05
2018-07-09T17:01:27.799Z,24.15
2018-07-09T17:04:52.436Z,23.46
2018-07-09T17:08:17.122Z,23.75
2018-07-09T17:11:41.801Z,22.82
2018-07-09T17:15:06.801Z,22.74
2018-07-09T17:18:31.449Z,24.28
2018-07-09T17:21:56.296Z,24.90
2018-07-09T17:25:22.083Z,25.22
2018-07-09T17:28:46.717Z,24.92
2018-07-09T17:32:11.429Z,25.19
2018-07-09T17:35:37.051Z,24.47
2018-07-09T17:39:01.833Z,26.22
2018-07-09T17:42:26.533Z,30.82
2018-07-09T17:45:51.273Z,31.00
2018-07-09T17:49:17.124Z,30.77
2018-07-09T17:52:41.869Z,32.30
2018-07-09T17:56:06.597Z,34.08
2018-07-09T17:59:31.499Z,32.90
2018-07-09T18:02:57.498Z,33.74
2018-07-09T18:06:22.223Z,33.84
2018-07-09T18:09:47.154Z,34.14
2018-07-09T18:13:11.954Z,34.23
2018-07-09T18:16:36.804Z,34.97
2018-07-09T18:20:01.321Z,35.17
2018-07-09T18:23:26.238Z,35.55
2018-07-09T18:26:51.487Z,37.47
2018-07-09T18:30:16.306Z,37.85
2018-07-09T18:33:41.191Z,37.35
2018-07-09T18:37:06.182Z,38.25
2018-07-09T18:40:31.001Z,38.93
2018-07-09T18:43:55.956Z,39.36
2018-07-09T18:47:20.872Z,40.03
2018-07-09T18:50:45.351Z,40.32
2018-07-09T18:54:11.205Z,40.04
2018-07-09T18:57:40.334Z,40.10
2018-07-09T19:01:05.124Z,41.71
2018-07-09T19:04:30.075Z,41.22
2018-07-09T19:07:59.283Z,41.34
2018-07-09T19:11:24.326Z,42.02
2018-07-09T19:14:49.863Z,42.26
2018-07-09T19:18:31.860Z,42.97
2018-07-09T19:22:03.023Z,42.39
2018-07-09T19:25:26.906Z,42.16
2018-07-09T19:28:49.922Z,42.81
2018-07-09T19:32:14.035Z,43.28
2018-07-09T19:35:36.948Z,43.45
2018-07-09T19:38:59.935Z,43.67
2018-07-09T19:42:22.829Z,43.27
2018-07-09T19:45:46.615Z,44.22
2018-07-09T19:49:09.699Z,43.87
2018-07-09T19:52:32.504Z,44.22
2018-07-09T19:55:56.355Z,44.89
2018-07-09T19:59:19.950Z,44.49
2018-07-09T20:02:43.238Z,44.63
2018-07-09T20:06:07.617Z,44.31
2018-07-09T20:09:36.149Z,44.59
2018-07-09T20:14:10.027Z,46.15
2018-07-09T20:17:36.204Z,45.80
2018-07-09T20:20:59.788Z,46.26
2018-07-09T20:24:23.160Z,46.42
2018-07-09T20:27:46.467Z,45.72
2018-07-09T20:31:09.748Z,45.74
2018-07-09T20:34:33.047Z,46.54
2018-07-09T20:37:56.399Z,45.84
2018-07-09T20:41:19.960Z,46.18
2018-07-09T20:44:43.269Z,46.41
2018-07-09T20:48:06.488Z,46.55
2018-07-09T20:51:29.843Z,47.21
2018-07-09T20:54:56.618Z,46.08
2018-07-09T20:58:19.965Z,46.82
2018-07-09T21:01:43.500Z,47.08
2018-07-09T21:05:06.804Z,45.81
2018-07-09T21:08:30.037Z,46.44
2018-07-09T21:11:53.562Z,45.60
2018-07-09T21:15:18.062Z,45.59
2018-07-09T21:18:41.133Z,46.45
2018-07-09T21:22:04.504Z,46.18
2018-07-09T21:25:27.790Z,46.92
2018-07-09T21:28:51.086Z,46.88
2018-07-09T21:32:14.397Z,47.72
2018-07-09T21:35:37.626Z,47.68
2018-07-09T21:39:00.926Z,46.58
2018-07-09T21:42:24.197Z,47.45
2018-07-09T21:45:47.541Z,47.58
2018-07-09T21:49:10.778Z,47.75
2018-07-09T21:52:34.058Z,47.64
2018-07-09T21:55:57.401Z,47.45
2018-07-09T21:59:20.723Z,46.77
2018-07-09T22:02:43.950Z,47.80
2018-07-09T22:06:07.378Z,47.26
2018-07-09T22:09:30.810Z,47.65
2018-07-09T22:12:54.098Z,47.32
2018-07-09T22:16:17.590Z,47.11
2018-07-09T22:19:40.806Z,47.29
2018-07-09T22:23:04.100Z,47.09
2018-07-09T22:26:27.420Z,46.92
2018-07-09T22:29:51.484Z,46.48
2018-07-09T22:33:17.010Z,46.19
2018-07-09T22:36:41.898Z,45.97
2018-07-09T22:40:07.185Z,45.05
2018-07-09T22:43:49.409Z,46.02
2018-07-09T22:47:14.631Z,46.21
2018-07-09T22:50:39.788Z,45.63
2018-07-09T22:54:05.278Z,46.23
2018-07-09T22:57:30.517Z,46.62
2018-07-09T23:00:55.673Z,46.45
2018-07-09T23:04:21.816Z,46.77
2018-07-09T23:07:46.441Z,46.07
2018-07-09T23:11:28.263Z,46.14
2018-07-09T23:16:47.595Z,45.65
2018-07-09T23:20:56.396Z,45.99
2018-07-09T23:24:19.197Z,47.42
2018-07-09T23:27:41.988Z,47.51
2018-07-09T23:31:04.812Z,48.32
2018-07-09T23:34:27.887Z,48.74
2018-07-09T23:37:50.706Z,48.43
2018-07-09T23:41:13.579Z,49.37
2018-07-09T23:44:37.362Z,48.81
2018-07-09T23:48:00.176Z,48.90
2018-07-09T23:51:23.230Z,48.84
2018-07-09T23:54:46.033Z,49.44
